createdAt,value
2023-02-11T00:01:07.247Z,1.32
2023-02-11T00:03:34.576Z,0.82
2023-02-11T00:06:03.905Z,1.10
2023-02-11T00:08:32.137Z,1.10
2023-02-11T00:10:59.016Z,1.07
2023-02-11T00:13:26.110Z,0.86
2023-02-11T00:15:53.744Z,0.69
2023-02-11T00:18:20.636Z,0.61
2023-02-11T00:20:47.443Z,0.78
2023-02-11T00:23:14.865Z,0.55
2023-02-11T00:25:45.238Z,0.90
2023-02-11T00:28:12.552Z,0.86
2023-02-11T00:30:39.517Z,0.62
2023-02-11T00:33:06.363Z,1.01
2023-02-11T00:35:33.210Z,0.97
2023-02-11T00:37:59.947Z,1.26
2023-02-11T00:40:26.659Z,0.96
2023-02-11T00:42:54.806Z,0.86
2023-02-11T00:45:21.626Z,0.73
2023-02-11T00:47:48.449Z,1.01
2023-02-11T00:50:15.297Z,0.93
2023-02-11T00:52:42.001Z,0.68
2023-02-11T00:55:09.124Z,1.10
2023-02-11T00:57:36.476Z,1.08
2023-02-11T01:00:05.529Z,0.85
2023-02-11T01:02:32.280Z,0.77
2023-02-11T01:04:59.600Z,0.97
2023-02-11T01:07:26.608Z,1.20
2023-02-11T01:09:54.000Z,0.89
2023-02-11T01:12:21.367Z,0.66
2023-02-11T01:14:48.347Z,1.94
2023-02-11T01:17:16.682Z,1.26
2023-02-11T01:19:43.497Z,1.06
2023-02-11T01:22:10.339Z,0.73
2023-02-11T01:24:37.134Z,1.07
2023-02-11T01:27:03.971Z,1.67
2023-02-11T01:29:30.721Z,1.84
2023-02-11T01:31:57.570Z,1.61
2023-02-11T01:34:25.733Z,1.13
2023-02-11T01:36:57.111Z,0.95
2023-02-11T01:39:23.925Z,0.83
2023-02-11T01:41:50.680Z,0.80
2023-02-11T01:44:26.173Z,0.98
2023-02-11T01:46:53.138Z,1.03
2023-02-11T01:49:23.386Z,1.42
2023-02-11T01:51:57.700Z,1.03
2023-02-11T01:54:28.349Z,0.89
2023-02-11T01:57:00.051Z,0.95
2023-02-11T01:59:33.273Z,0.62
2023-02-11T02:02:06.356Z,0.62
2023-02-11T02:04:38.784Z,1.07
2023-02-11T02:07:13.861Z,1.10
2023-02-11T02:09:44.189Z,0.72
2023-02-11T02:12:11.035Z,0.82
2023-02-11T02:14:39.395Z,0.57
2023-02-11T02:17:06.391Z,0.53
2023-02-11T02:19:58.630Z,0.63
2023-02-11T02:22:49.176Z,0.74
2023-02-11T02:25:40.608Z,0.92
2023-02-11T02:28:25.676Z,0.78
2023-02-11T02:31:20.062Z,0.66
2023-02-11T02:33:55.617Z,0.67
2023-02-11T02:36:28.321Z,0.56
2023-02-11T02:39:00.667Z,0.45
2023-02-11T02:41:30.125Z,0.64
2023-02-11T02:43:57.199Z,1.53
2023-02-11T02:46:26.643Z,1.26
2023-02-11T02:48:56.971Z,0.99
2023-02-11T02:51:45.422Z,0.88
2023-02-11T02:54:45.855Z,0.61
2023-02-11T02:57:29.154Z,0.80
2023-02-11T03:00:12.654Z,0.94
2023-02-11T03:02:51.063Z,0.60
2023-02-11T03:05:23.334Z,0.42
2023-02-11T03:07:56.868Z,0.42
2023-02-11T03:10:28.338Z,0.78
2023-02-11T03:12:56.857Z,0.46
2023-02-11T03:15:25.964Z,0.34
2023-02-11T03:17:56.551Z,1.81
2023-02-11T03:20:25.044Z,3.41
2023-02-11T03:22:58.108Z,1.84
2023-02-11T03:25:30.156Z,1.41
2023-02-11T03:28:07.208Z,0.85
2023-02-11T03:30:40.292Z,1.11
2023-02-11T03:33:13.332Z,0.84
2023-02-11T03:35:46.129Z,1.58
2023-02-11T03:38:17.926Z,1.50
2023-02-11T03:40:45.494Z,1.15
2023-02-11T03:43:17.521Z,0.80
2023-02-11T03:45:46.367Z,0.62
2023-02-11T03:48:16.814Z,0.33
2023-02-11T03:50:46.638Z,0.94
2023-02-11T03:53:14.819Z,1.07
2023-02-11T03:55:44.036Z,1.52
2023-02-11T03:58:11.297Z,1.22
2023-02-11T04:00:41.198Z,0.76
2023-02-11T04:03:09.336Z,0.51
2023-02-11T04:05:36.206Z,0.36
2023-02-11T04:08:05.267Z,0.28
2023-02-11T04:10:32.033Z,0.27
2023-02-11T04:12:58.858Z,0.48
2023-02-11T04:15:25.773Z,0.55
2023-02-11T04:17:52.578Z,0.87
2023-02-11T04:20:19.636Z,1.46
2023-02-11T04:22:46.489Z,0.86
2023-02-11T04:25:14.702Z,1.04
2023-02-11T04:27:41.428Z,0.93
2023-02-11T04:30:09.665Z,0.76
2023-02-11T04:32:36.469Z,0.74
2023-02-11T04:35:03.283Z,1.28
2023-02-11T04:37:30.139Z,1.77
2023-02-11T04:39:56.950Z,1.00
2023-02-11T04:42:25.131Z,0.56
2023-02-11T04:44:51.882Z,0.37
2023-02-11T04:47:18.690Z,0.35
2023-02-11T04:49:45.484Z,0.32
2023-02-11T04:52:12.310Z,0.52
2023-02-11T04:54:39.289Z,0.46
2023-02-11T04:57:06.158Z,0.45
2023-02-11T04:59:34.253Z,1.04
2023-02-11T05:02:01.062Z,0.60
2023-02-11T05:04:27.939Z,0.90
2023-02-11T05:06:55.652Z,1.03
2023-02-11T05:09:24.061Z,0.83
2023-02-11T05:11:50.891Z,0.98
2023-02-11T05:14:17.624Z,0.57
2023-02-11T05:16:45.947Z,0.38
2023-02-11T05:19:12.873Z,1.05
2023-02-11T05:21:41.051Z,0.69
2023-02-11T05:24:12.300Z,0.60
2023-02-11T05:26:39.013Z,0.80
2023-02-11T05:29:05.800Z,0.62
2023-02-11T05:31:32.547Z,0.95
2023-02-11T05:34:00.726Z,0.75
2023-02-11T05:36:27.478Z,0.59
2023-02-11T05:38:54.264Z,0.36
2023-02-11T05:41:21.040Z,0.40
2023-02-11T05:43:48.301Z,0.41
2023-02-11T05:46:15.061Z,1.25
2023-02-11T05:48:41.777Z,0.88
2023-02-11T05:51:09.985Z,0.81
2023-02-11T05:53:37.135Z,0.68
2023-02-11T05:56:04.465Z,0.46
2023-02-11T05:58:32.249Z,2.55
2023-02-11T06:00:59.084Z,1.47
2023-02-11T06:03:25.929Z,0.92
2023-02-11T06:05:53.009Z,0.62
2023-02-11T06:08:21.290Z,0.68
2023-02-11T06:10:48.080Z,0.53
2023-02-11T06:13:14.870Z,0.70
2023-02-11T06:15:41.583Z,0.56
2023-02-11T06:18:08.411Z,0.54
2023-02-11T06:20:35.248Z,0.38
2023-02-11T06:23:01.965Z,2.16
2023-02-11T06:25:30.136Z,3.32
2023-02-11T06:27:57.204Z,3.88
2023-02-11T06:30:24.007Z,2.34
2023-02-11T06:32:50.841Z,1.55
2023-02-11T06:35:17.847Z,1.73
2023-02-11T06:37:44.690Z,2.21
2023-02-11T06:40:11.824Z,6.89
2023-02-11T06:42:39.955Z,6.53
2023-02-11T06:45:07.552Z,5.41
2023-02-11T06:47:34.299Z,5.26
2023-02-11T06:50:01.153Z,6.24
2023-02-11T06:52:27.975Z,4.13
2023-02-11T06:54:54.718Z,2.90
2023-02-11T06:57:21.490Z,1.66
2023-02-11T06:59:49.805Z,1.71
2023-02-11T07:02:18.497Z,1.12
2023-02-11T07:04:49.735Z,0.85
2023-02-11T07:07:17.626Z,0.59
2023-02-11T07:09:44.683Z,0.89
2023-02-11T07:12:11.467Z,1.71
2023-02-11T07:14:38.394Z,1.62
2023-02-11T07:17:06.582Z,2.18
2023-02-11T07:19:33.361Z,1.58
2023-02-11T07:22:00.140Z,1.33
2023-02-11T07:24:26.866Z,1.77
2023-02-11T07:26:53.970Z,10.96
2023-02-11T07:29:20.808Z,8.52
2023-02-11T07:31:47.617Z,6.71
2023-02-11T07:34:15.880Z,6.17
2023-02-11T07:36:42.681Z,5.43
2023-02-11T07:39:09.462Z,4.15
2023-02-11T07:41:38.041Z,9.34
2023-02-11T07:44:05.799Z,10.63
2023-02-11T07:46:33.168Z,12.50
2023-02-11T07:49:00.312Z,13.05
2023-02-11T07:51:29.912Z,12.10
2023-02-11T07:53:58.789Z,8.57
2023-02-11T07:56:26.111Z,6.35
2023-02-11T07:58:53.354Z,5.98
2023-02-11T08:01:21.978Z,5.18
2023-02-11T08:03:48.694Z,4.35
2023-02-11T08:06:17.328Z,4.83
2023-02-11T08:08:45.449Z,3.39
2023-02-11T08:11:14.822Z,2.21
2023-02-11T08:13:42.096Z,1.47
2023-02-11T08:16:09.139Z,1.24
2023-02-11T08:18:37.083Z,1.16
2023-02-11T08:21:05.576Z,1.13
2023-02-11T08:23:32.325Z,3.20
2023-02-11T08:26:02.732Z,3.81
2023-02-11T08:28:29.641Z,3.96
2023-02-11T08:30:56.597Z,3.06
2023-02-11T08:33:23.455Z,3.74
2023-02-11T08:35:52.384Z,4.27
2023-02-11T08:38:20.200Z,3.04
2023-02-11T08:40:46.985Z,3.05
2023-02-11T08:43:15.460Z,2.94
2023-02-11T08:45:42.258Z,3.41
2023-02-11T08:48:09.004Z,3.49
2023-02-11T08:50:35.760Z,2.82
2023-02-11T08:53:02.651Z,3.16
2023-02-11T08:55:30.704Z,2.94
2023-02-11T08:57:57.513Z,2.51
2023-02-11T09:00:25.962Z,2.55
2023-02-11T09:02:52.787Z,2.46
2023-02-11T09:05:19.699Z,2.05
2023-02-11T09:07:46.433Z,1.91
2023-02-11T09:10:13.263Z,1.35
2023-02-11T09:12:40.110Z,1.60
2023-02-11T09:15:07.748Z,1.45
2023-02-11T09:17:35.877Z,1.29
2023-02-11T09:20:02.914Z,1.76
2023-02-11T09:22:29.818Z,1.50
2023-02-11T09:24:56.702Z,1.37
2023-02-11T09:27:23.546Z,1.99
2023-02-11T09:29:50.570Z,1.97
2023-02-11T09:32:17.408Z,1.92
2023-02-11T09:34:45.616Z,1.94
2023-02-11T09:37:12.416Z,2.53
2023-02-11T09:39:39.144Z,2.34
2023-02-11T09:42:47.877Z,2.63
2023-02-11T09:45:33.221Z,2.29
2023-02-11T09:48:22.349Z,2.01
2023-02-11T09:51:19.187Z,2.22
2023-02-11T09:53:50.239Z,2.14
2023-02-11T09:56:17.010Z,2.16
2023-02-11T09:58:44.814Z,1.99
2023-02-11T10:01:21.204Z,2.13
2023-02-11T10:04:01.539Z,1.66
2023-02-11T10:06:42.959Z,1.52
2023-02-11T10:09:34.813Z,1.79
2023-02-11T10:12:14.284Z,1.93
2023-02-11T10:15:06.392Z,2.04
2023-02-11T10:17:42.281Z,1.52
2023-02-11T10:20:23.637Z,1.81
2023-02-11T10:22:54.466Z,2.35
2023-02-11T10:25:24.514Z,2.19
2023-02-11T10:27:52.688Z,3.25
2023-02-11T10:30:26.807Z,3.61
2023-02-11T10:35:24.339Z,3.72
2023-02-11T10:37:53.203Z,3.58
2023-02-11T10:40:22.176Z,5.23
2023-02-11T10:42:53.589Z,4.41
2023-02-11T10:45:28.108Z,3.73
2023-02-11T10:47:54.912Z,3.57
2023-02-11T10:50:27.540Z,4.12
2023-02-11T10:53:12.463Z,4.05
2023-02-11T10:55:48.185Z,4.47
2023-02-11T10:58:25.752Z,4.36
2023-02-11T11:00:54.301Z,4.34
2023-02-11T11:03:22.989Z,4.12
2023-02-11T11:05:52.729Z,4.10
2023-02-11T11:08:23.085Z,3.56
2023-02-11T11:11:05.909Z,3.03
2023-02-11T11:13:35.490Z,3.50
2023-02-11T11:16:16.751Z,3.20
2023-02-11T11:18:45.252Z,3.07
2023-02-11T11:21:15.483Z,4.60
2023-02-11T11:23:48.720Z,3.59
2023-02-11T11:26:17.311Z,3.54
2023-02-11T11:28:53.346Z,3.49
2023-02-11T11:31:23.786Z,3.58
2023-02-11T11:33:54.193Z,3.21
2023-02-11T11:36:23.017Z,4.12
2023-02-11T11:38:58.237Z,4.24
2023-02-11T11:41:27.429Z,3.54
2023-02-11T11:43:58.530Z,3.17
2023-02-11T11:46:28.247Z,3.39
2023-02-11T11:49:00.898Z,3.15
2023-02-11T11:51:28.212Z,3.52
2023-02-11T11:54:00.618Z,3.28
2023-02-11T11:56:30.060Z,2.88
2023-02-11T11:58:59.669Z,2.58
2023-02-11T12:01:39.097Z,2.98
2023-02-11T12:04:35.316Z,3.87
2023-02-11T12:07:19.180Z,3.84
2023-02-11T12:10:04.244Z,3.39
2023-02-11T12:12:46.747Z,3.12
2023-02-11T12:15:29.852Z,2.98
2023-02-11T12:18:26.576Z,2.37
2023-02-11T12:21:12.184Z,2.86
2023-02-11T12:23:54.177Z,2.80
2023-02-11T12:26:24.066Z,2.14
2023-02-11T12:29:06.067Z,2.54
2023-02-11T12:31:47.329Z,2.63
2023-02-11T12:34:48.040Z,2.29
2023-02-11T12:37:25.800Z,1.98
2023-02-11T12:40:03.269Z,1.95
2023-02-11T12:42:45.047Z,1.90
2023-02-11T12:45:28.015Z,2.58
2023-02-11T12:48:07.801Z,3.78
2023-02-11T12:50:46.120Z,3.43
2023-02-11T12:53:30.016Z,2.54
2023-02-11T12:56:00.745Z,2.58
2023-02-11T12:58:44.398Z,2.19
2023-02-11T13:01:18.626Z,2.42
2023-02-11T13:03:49.153Z,2.90
2023-02-11T13:06:18.743Z,2.28
2023-02-11T13:08:48.530Z,2.61
2023-02-11T13:11:18.382Z,2.55
2023-02-11T13:13:55.873Z,2.10
2023-02-11T13:16:33.159Z,2.59
2023-02-11T13:19:06.920Z,1.98
2023-02-11T13:21:47.176Z,1.96
2023-02-11T13:24:22.367Z,1.75
2023-02-11T13:26:58.875Z,1.92
2023-02-11T13:29:49.829Z,1.90
2023-02-11T13:32:19.428Z,1.82
2023-02-11T13:34:57.559Z,1.67
2023-02-11T13:37:26.613Z,3.17
2023-02-11T13:40:01.416Z,4.86
2023-02-11T13:42:29.582Z,4.71
2023-02-11T13:44:58.098Z,3.50
2023-02-11T13:47:28.945Z,2.70
2023-02-11T13:49:57.139Z,1.98
2023-02-11T13:52:27.270Z,1.53
2023-02-11T13:54:57.701Z,1.54
2023-02-11T13:57:34.216Z,1.54
2023-02-11T14:00:40.477Z,1.13
2023-02-11T14:03:30.640Z,1.32
2023-02-11T14:06:12.511Z,1.81
2023-02-11T14:09:00.325Z,1.66
2023-02-11T14:11:48.293Z,1.90
2023-02-11T14:14:24.828Z,1.50
2023-02-11T14:17:30.261Z,1.70
2023-02-11T14:22:28.190Z,2.41
2023-02-11T14:24:58.398Z,2.89
2023-02-11T14:27:41.634Z,3.23
2023-02-11T14:30:33.313Z,3.86
2023-02-11T14:33:33.197Z,5.81
2023-02-11T14:36:12.790Z,5.16
2023-02-11T14:38:56.840Z,4.02
2023-02-11T14:41:26.318Z,3.30
2023-02-11T14:43:57.557Z,3.53
2023-02-11T14:46:31.037Z,3.43
2023-02-11T14:49:00.403Z,4.37
2023-02-11T14:51:31.779Z,4.63
2023-02-11T14:54:04.504Z,5.27
2023-02-11T14:56:32.154Z,4.63
2023-02-11T14:58:59.308Z,3.82
2023-02-11T15:01:29.798Z,4.31
2023-02-11T15:03:56.924Z,3.91
2023-02-11T15:06:26.711Z,4.08
2023-02-11T15:08:57.722Z,5.89
2023-02-11T15:11:25.468Z,6.53
2023-02-11T15:13:55.319Z,8.07
2023-02-11T15:16:24.875Z,8.56
2023-02-11T15:18:55.103Z,7.06
2023-02-11T15:21:24.460Z,5.14
2023-02-11T15:24:01.168Z,4.39
2023-02-11T15:26:29.244Z,3.52
2023-02-11T15:28:56.360Z,3.44
2023-02-11T15:31:25.635Z,2.87
2023-02-11T15:33:53.624Z,2.47
2023-02-11T15:36:23.069Z,1.96
2023-02-11T15:39:29.554Z,1.72
2023-02-11T15:41:56.363Z,2.57
2023-02-11T15:44:31.230Z,1.97
2023-02-11T15:46:58.540Z,1.23
2023-02-11T15:49:26.436Z,1.05
2023-02-11T15:51:55.692Z,0.72
2023-02-11T15:54:27.245Z,0.52
2023-02-11T15:56:59.418Z,0.42
2023-02-11T15:59:28.605Z,0.27
2023-02-11T16:01:55.726Z,0.42
2023-02-11T16:04:24.929Z,0.47
2023-02-11T16:06:53.560Z,2.56
2023-02-11T16:09:31.401Z,2.07
2023-02-11T16:12:01.049Z,1.35
2023-02-11T16:14:33.462Z,0.86
2023-02-11T16:17:05.221Z,0.67
2023-02-11T16:19:33.894Z,0.62
2023-02-11T16:22:06.370Z,1.38
2023-02-11T16:24:36.725Z,1.31
2023-02-11T16:27:06.840Z,1.26
2023-02-11T16:29:36.962Z,0.98
2023-02-11T16:32:09.217Z,0.72
2023-02-11T16:34:36.820Z,0.58
2023-02-11T16:37:04.716Z,1.11
2023-02-11T16:39:31.474Z,1.14
2023-02-11T16:42:00.185Z,0.65
2023-02-11T16:44:27.704Z,0.55
2023-02-11T16:46:55.639Z,1.99
2023-02-11T16:49:25.508Z,1.39
2023-02-11T16:51:55.768Z,1.29
2023-02-11T16:54:23.724Z,0.83
2023-02-11T16:56:50.821Z,0.79
2023-02-11T16:59:19.242Z,0.77
2023-02-11T17:01:48.032Z,1.44
2023-02-11T17:04:19.090Z,1.47
2023-02-11T17:06:45.911Z,1.16
2023-02-11T17:09:17.767Z,1.02
2023-02-11T17:11:44.657Z,0.64
2023-02-11T17:14:11.393Z,1.05
2023-02-11T17:16:39.655Z,0.73
2023-02-11T17:19:06.445Z,0.53
2023-02-11T17:21:33.238Z,0.53
2023-02-11T17:24:00.018Z,0.33
2023-02-11T17:26:26.809Z,0.43
2023-02-11T17:28:53.610Z,0.31
2023-02-11T17:31:20.567Z,0.26
2023-02-11T17:33:48.700Z,0.19
2023-02-11T17:36:15.541Z,0.21
2023-02-11T17:38:42.291Z,0.13
2023-02-11T17:41:09.007Z,0.11
2023-02-11T17:43:35.738Z,0.15
2023-02-11T17:46:06.234Z,0.13
2023-02-11T17:48:33.192Z,0.07
2023-02-11T17:51:01.284Z,0.43
2023-02-11T17:53:28.031Z,0.27
2023-02-11T17:55:55.026Z,0.15
2023-02-11T17:58:21.971Z,0.23
2023-02-11T18:00:48.776Z,0.26
2023-02-11T18:03:15.666Z,0.19
2023-02-11T18:05:42.481Z,0.16
2023-02-11T18:08:10.619Z,0.31
2023-02-11T18:10:40.663Z,0.71
2023-02-11T18:13:07.525Z,0.38
2023-02-11T18:15:34.240Z,0.38
2023-02-11T18:18:01.010Z,0.20
2023-02-11T18:20:27.841Z,0.14
2023-02-11T18:22:54.681Z,0.37
2023-02-11T18:25:22.821Z,0.25
2023-02-11T18:27:49.554Z,0.13
2023-02-11T18:30:18.265Z,2.06
2023-02-11T18:32:45.432Z,1.10
2023-02-11T18:35:14.810Z,0.68
2023-02-11T18:37:42.264Z,0.36
2023-02-11T18:40:10.629Z,0.21
2023-02-11T18:42:39.288Z,0.15
2023-02-11T18:45:07.639Z,0.08
2023-02-11T18:47:34.348Z,0.28
2023-02-11T18:50:01.145Z,0.15
2023-02-11T18:52:27.848Z,0.08
2023-02-11T18:54:54.576Z,0.04
2023-02-11T18:57:21.400Z,0.04
2023-02-11T18:59:49.807Z,0.02
2023-02-11T19:02:16.682Z,0.07
2023-02-11T19:04:44.080Z,0.04
2023-02-11T19:07:10.877Z,0.49
2023-02-11T19:09:37.689Z,0.31
2023-02-11T19:12:05.065Z,0.38
2023-02-11T19:14:32.797Z,0.93
2023-02-11T19:17:03.052Z,0.50
2023-02-11T19:19:32.164Z,0.26
2023-02-11T19:22:00.094Z,0.18
2023-02-11T19:24:27.883Z,0.46
2023-02-11T19:26:57.405Z,0.29
2023-02-11T19:29:24.489Z,0.16
2023-02-11T19:31:51.440Z,0.16
2023-02-11T19:34:21.140Z,0.09
2023-02-11T19:36:49.176Z,0.17
2023-02-11T19:39:16.637Z,0.09
2023-02-11T19:41:43.417Z,0.05
2023-02-11T19:44:10.591Z,0.17
2023-02-11T19:46:39.490Z,0.09
2023-02-11T19:49:06.613Z,0.09
2023-02-11T19:51:34.706Z,0.20
2023-02-11T19:54:01.461Z,0.11
2023-02-11T19:56:28.591Z,0.06
2023-02-11T19:58:55.503Z,0.03
2023-02-11T20:01:23.674Z,0.02
2023-02-11T20:03:51.410Z,0.04
2023-02-11T20:06:21.591Z,0.02
2023-02-11T20:08:53.340Z,0.01
2023-02-11T20:11:20.262Z,0.01
2023-02-11T20:13:47.028Z,0.03
2023-02-11T20:16:15.601Z,0.02
2023-02-11T20:18:42.697Z,0.15
2023-02-11T20:21:11.251Z,0.23
2023-02-11T20:23:38.238Z,0.18
2023-02-11T20:26:07.978Z,0.10
2023-02-11T20:28:35.478Z,0.05
2023-02-11T20:31:03.135Z,0.23
2023-02-11T20:33:30.610Z,0.12
2023-02-11T20:35:58.585Z,0.06
2023-02-11T20:38:26.420Z,0.07
2023-02-11T20:40:53.539Z,0.04
2023-02-11T20:43:22.193Z,0.02
2023-02-11T20:45:49.315Z,0.01
2023-02-11T20:48:16.177Z,0.01
2023-02-11T20:50:43.062Z,0.00
2023-02-11T20:53:09.963Z,0.00
2023-02-11T20:55:38.114Z,0.01
2023-02-11T20:58:05.950Z,0.01
2023-02-11T21:00:35.604Z,0.05
2023-02-11T21:03:02.589Z,0.03
2023-02-11T21:05:29.462Z,0.01
2023-02-11T21:07:56.309Z,0.05
2023-02-11T21:10:23.093Z,0.03
2023-02-11T21:12:50.043Z,0.02
2023-02-11T21:15:16.877Z,0.01
2023-02-11T21:17:45.081Z,0.00
2023-02-11T21:20:12.106Z,0.00
2023-02-11T21:22:38.769Z,0.05
2023-02-11T21:25:06.044Z,0.03
2023-02-11T21:27:32.877Z,0.20
2023-02-11T21:30:00.044Z,0.11
2023-02-11T21:32:26.939Z,0.06
2023-02-11T21:34:55.181Z,0.03
2023-02-11T21:37:21.936Z,0.12
2023-02-11T21:39:49.134Z,0.06
2023-02-11T21:42:15.970Z,0.03
2023-02-11T21:44:42.701Z,0.65
2023-02-11T21:47:09.527Z,0.34
2023-02-11T21:49:36.301Z,0.23
2023-02-11T21:52:04.869Z,0.48
2023-02-11T21:54:31.661Z,0.27
2023-02-11T21:56:58.783Z,0.15
2023-02-11T21:59:25.600Z,0.08
2023-02-11T22:01:52.750Z,0.04
2023-02-11T22:04:19.569Z,0.02
2023-02-11T22:06:46.374Z,0.02
2023-02-11T22:09:14.586Z,0.80
2023-02-11T22:11:41.506Z,0.54
2023-02-11T22:14:08.245Z,0.29
2023-02-11T22:16:35.549Z,0.19
2023-02-11T22:19:02.394Z,0.10
2023-02-11T22:21:29.783Z,0.05
2023-02-11T22:23:56.527Z,0.58
2023-02-11T22:26:26.353Z,0.51
2023-02-11T22:28:53.680Z,0.42
2023-02-11T22:31:24.383Z,0.22
2023-02-11T22:33:51.584Z,4.36
2023-02-11T22:36:20.214Z,2.32
2023-02-11T22:38:49.189Z,1.24
2023-02-11T22:41:17.029Z,0.66
2023-02-11T22:43:45.627Z,0.35
2023-02-11T22:46:17.266Z,0.19
2023-02-11T22:48:44.226Z,0.15
2023-02-11T22:51:13.036Z,0.12
2023-02-11T22:53:41.695Z,0.33
2023-02-11T22:56:12.676Z,0.22
2023-02-11T22:58:40.897Z,0.16
2023-02-11T23:01:09.069Z,0.09
2023-02-11T23:03:36.137Z,0.16
2023-02-11T23:06:02.983Z,0.08
2023-02-11T23:08:30.365Z,0.09
2023-02-11T23:11:02.492Z,0.05
2023-02-11T23:13:29.206Z,0.10
2023-02-11T23:15:56.164Z,0.10
2023-02-11T23:18:24.516Z,0.12
2023-02-11T23:20:51.230Z,0.66
2023-02-11T23:23:17.954Z,0.35
2023-02-11T23:25:44.753Z,0.33
2023-02-11T23:28:12.363Z,0.17
2023-02-11T23:30:39.559Z,0.19
2023-02-11T23:33:06.298Z,0.15
2023-02-11T23:35:34.560Z,0.13
2023-02-11T23:38:01.418Z,0.11
2023-02-11T23:40:28.154Z,0.06
2023-02-11T23:42:54.909Z,1.14
2023-02-11T23:45:21.682Z,0.60
2023-02-11T23:47:48.672Z,0.36
2023-02-11T23:50:15.465Z,0.19
2023-02-11T23:52:43.668Z,0.15
2023-02-11T23:55:10.887Z,0.13
2023-02-11T23:57:37.831Z,0.11
